Time,TemperatureF,DewpointF,PressureIn,WindDirection,WindDirectionDegrees,WindSpeedMPH,WindSpeedGustMPH,Humidity,HourlyPrecipIn,Conditions,Clouds,dailyrainin,SoftwareType,DateUTC
2013-06-18 00:04:00,56.5,52.0,29.75,WNW,292,0.0,-999.0,85,-99.99,,,0.00,Acu-Link.com,2013-06-18 07:04:00,
2013-06-18 00:19:00,55.9,51.8,29.74,WSW,247,3.2,-999.0,86,-99.99,,,0.00,Acu-Link.com,2013-06-18 07:19:00,
2013-06-18 00:34:00,55.6,51.8,29.75,NNE,22,4.2,-999.0,87,-99.99,,,0.00,Acu-Link.com,2013-06-18 07:34:00,
2013-06-18 00:50:00,55.2,51.7,29.75,SE,135,0.0,-999.0,88,-99.99,,,0.00,Acu-Link.com,2013-06-18 07:50:00,
2013-06-18 01:05:00,54.9,51.4,29.75,WNW,292,0.0,-999.0,88,-99.99,,,0.00,Acu-Link.com,2013-06-18 08:05:00,
2013-06-18 01:20:00,54.3,50.8,29.75,ESE,112,1.7,-999.0,88,-99.99,,,0.00,Acu-Link.com,2013-06-18 08:20:00,
2013-06-18 01:35:00,54.5,51.3,29.76,South,180,1.7,-999.0,89,-99.99,,,0.00,Acu-Link.com,2013-06-18 08:35:00,
2013-06-18 01:50:00,54.1,51.2,29.76,ESE,112,1.1,-999.0,90,-99.99,,,0.00,Acu-Link.com,2013-06-18 08:50:00,
2013-06-18 02:05:00,54.0,51.1,29.75,SW,225,1.1,-999.0,90,-99.99,,,0.00,Acu-Link.com,2013-06-18 09:05:00,
2013-06-18 02:21:00,54.0,51.4,29.75,WSW,247,2.7,-999.0,91,-99.99,,,0.00,Acu-Link.com,2013-06-18 09:21:00,
2013-06-18 02:36:00,53.8,51.2,29.76,South,180,0.0,-999.0,91,-99.99,,,0.00,Acu-Link.com,2013-06-18 09:36:00,
2013-06-18 02:51:00,53.6,51.0,29.75,NNW,337,2.7,-999.0,91,-99.99,,,0.00,Acu-Link.com,2013-06-18 09:51:00,
2013-06-18 03:06:00,53.8,51.2,29.74,South,180,2.2,-999.0,91,-99.99,,,0.00,Acu-Link.com,2013-06-18 10:06:00,
2013-06-18 03:22:00,53.4,50.8,29.74,ESE,112,2.2,-999.0,91,-99.99,,,0.00,Acu-Link.com,2013-06-18 10:22:00,
2013-06-18 03:37:00,53.2,50.9,29.75,SE,135,3.2,-999.0,92,-99.99,,,0.00,Acu-Link.com,2013-06-18 10:37:00,
2013-06-18 03:52:00,53.1,50.8,29.74,South,180,3.2,-999.0,92,-99.99,,,0.00,Acu-Link.com,2013-06-18 10:52:00,
2013-06-18 04:08:00,53.1,50.8,29.75,SE,135,2.7,-999.0,92,-99.99,,,0.00,Acu-Link.com,2013-06-18 11:08:00,
2013-06-18 04:23:00,52.9,50.6,29.75,WSW,247,2.2,-999.0,92,-99.99,,,0.00,Acu-Link.com,2013-06-18 11:23:00,
2013-06-18 04:38:00,52.5,50.2,29.74,WSW,247,0.0,-999.0,92,-99.99,,,0.00,Acu-Link.com,2013-06-18 11:38:00,
2013-06-18 04:54:00,52.2,49.9,29.75,SW,225,0.0,-999.0,92,-99.99,,,0.00,Acu-Link.com,2013-06-18 11:54:00,
2013-06-18 05:09:00,51.8,49.6,29.75,West,270,0.0,-999.0,92,-99.99,,,0.00,Acu-Link.com,2013-06-18 12:09:00,
2013-06-18 05:24:00,51.4,49.2,29.74,South,180,1.1,-999.0,92,-99.99,,,0.00,Acu-Link.com,2013-06-18 12:24:00,
2013-06-18 05:39:00,51.3,49.1,29.75,SW,225,1.1,-999.0,92,-99.99,,,0.00,Acu-Link.com,2013-06-18 12:39:00,
2013-06-18 05:55:00,50.9,48.7,29.75,WNW,292,0.0,-999.0,92,-99.99,,,0.00,Acu-Link.com,2013-06-18 12:55:00,
2013-06-18 06:10:00,50.9,48.9,29.76,WNW,292,0.0,-999.0,93,-99.99,,,0.00,Acu-Link.com,2013-06-18 13:10:00,
2013-06-18 06:25:00,53.2,50.3,29.75,NE,45,2.2,-999.0,90,-99.99,,,0.00,Acu-Link.com,2013-06-18 13:25:00,
2013-06-18 06:40:00,53.8,50.3,29.75,NNW,337,1.7,-999.0,88,-99.99,,,0.00,Acu-Link.com,2013-06-18 13:40:00,
2013-06-18 06:55:00,55.2,51.1,29.75,SSE,157,2.2,-999.0,86,-99.99,,,0.00,Acu-Link.com,2013-06-18 13:55:00,
2013-06-18 07:11:00,57.7,51.6,29.75,SW,225,2.2,-999.0,80,-99.99,,,0.00,Acu-Link.com,2013-06-18 14:11:00,
2013-06-18 07:26:00,59.5,52.3,29.75,West,270,1.1,-999.0,77,-99.99,,,0.00,Acu-Link.com,2013-06-18 14:26:00,
2013-06-18 07:41:00,61.3,52.9,29.75,West,270,1.7,-999.0,74,-99.99,,,0.00,Acu-Link.com,2013-06-18 14:41:00,
2013-06-18 07:57:00,63.7,53.3,29.75,SW,225,0.0,-999.0,69,-99.99,,,0.00,Acu-Link.com,2013-06-18 14:57:00,
2013-06-18 08:12:00,64.8,52.8,29.75,NW,315,2.2,-999.0,65,-99.99,,,0.00,Acu-Link.com,2013-06-18 15:12:00,
2013-06-18 08:27:00,63.5,51.1,29.75,ESE,112,2.7,-999.0,64,-99.99,,,0.00,Acu-Link.com,2013-06-18 15:27:00,
2013-06-18 08:43:00,63.3,50.9,29.75,North,0,6.8,-999.0,64,-99.99,,,0.00,Acu-Link.com,2013-06-18 15:43:00,
2013-06-18 08:58:00,63.7,50.9,29.76,South,180,3.7,-999.0,63,-99.99,,,0.00,Acu-Link.com,2013-06-18 15:58:00,
2013-06-18 09:13:00,64.6,51.7,29.76,NE,45,2.2,-999.0,63,-99.99,,,0.00,Acu-Link.com,2013-06-18 16:13:00,
2013-06-18 09:28:00,65.3,51.1,29.76,NE,45,2.7,-999.0,60,-99.99,,,0.00,Acu-Link.com,2013-06-18 16:28:00,
2013-06-18 09:44:00,66.6,50.9,29.75,SSW,202,3.7,-999.0,57,-99.99,,,0.00,Acu-Link.com,2013-06-18 16:44:00,
2013-06-18 09:59:00,68.5,50.7,29.75,West,270,5.8,-999.0,53,-99.99,,,0.00,Acu-Link.com,2013-06-18 16:59:00,
2013-06-18 10:14:00,70.2,51.2,29.75,SSE,157,3.7,-999.0,51,-99.99,,,0.00,Acu-Link.com,2013-06-18 17:14:00,
2013-06-18 10:30:00,71.6,51.4,29.75,North,0,4.7,-999.0,49,-99.99,,,0.00,Acu-Link.com,2013-06-18 17:30:00,
2013-06-18 10:45:00,71.1,49.8,29.75,East,90,3.7,-999.0,47,-99.99,,,0.00,Acu-Link.com,2013-06-18 17:45:00,
2013-06-18 11:00:00,71.8,48.7,29.75,West,270,4.7,-999.0,44,-99.99,,,0.00,Acu-Link.com,2013-06-18 18:00:00,
2013-06-18 11:15:00,73.4,48.3,29.74,SW,225,3.2,-999.0,41,-99.99,,,0.00,Acu-Link.com,2013-06-18 18:15:00,
2013-06-18 11:31:00,72.7,47.6,29.75,NW,315,9.9,-999.0,41,-99.99,,,0.00,Acu-Link.com,2013-06-18 18:31:00,
2013-06-18 11:46:00,74.3,48.4,29.75,West,270,2.7,-999.0,40,-99.99,,,0.00,Acu-Link.com,2013-06-18 18:46:00,
2013-06-18 12:01:00,75.0,50.3,29.74,SSE,157,3.7,-999.0,42,-99.99,,,0.00,Acu-Link.com,2013-06-18 19:01:00,
2013-06-18 12:16:00,75.4,50.0,29.74,SW,225,3.7,-999.0,41,-99.99,,,0.00,Acu-Link.com,2013-06-18 19:16:00,
2013-06-18 12:31:00,75.9,49.8,29.74,West,270,7.3,-999.0,40,-99.99,,,0.00,Acu-Link.com,2013-06-18 19:31:00,
2013-06-18 12:47:00,75.7,49.0,29.74,NE,45,3.2,-999.0,39,-99.99,,,0.00,Acu-Link.com,2013-06-18 19:47:00,
2013-06-18 13:02:00,76.1,50.0,29.73,NNW,337,5.8,-999.0,40,-99.99,,,0.00,Acu-Link.com,2013-06-18 20:02:00,
2013-06-18 13:17:00,75.9,50.5,29.73,SW,225,7.8,-999.0,41,-99.99,,,0.00,Acu-Link.com,2013-06-18 20:17:00,
2013-06-18 13:32:00,76.3,50.2,29.73,WSW,247,4.2,-999.0,40,-99.99,,,0.00,Acu-Link.com,2013-06-18 20:32:00,
2013-06-18 13:48:00,75.9,50.5,29.73,SW,225,2.7,-999.0,41,-99.99,,,0.00,Acu-Link.com,2013-06-18 20:48:00,
2013-06-18 14:03:00,75.9,51.1,29.73,SE,135,4.2,-999.0,42,-99.99,,,0.00,Acu-Link.com,2013-06-18 21:03:00,
2013-06-18 14:18:00,75.7,50.3,29.73,NNE,22,3.2,-999.0,41,-99.99,,,0.00,Acu-Link.com,2013-06-18 21:18:00,
2013-06-18 14:33:00,76.8,51.3,29.73,North,0,5.3,-999.0,41,-99.99,,,0.00,Acu-Link.com,2013-06-18 21:33:00,
2013-06-18 14:48:00,75.4,50.0,29.73,East,90,4.7,-999.0,41,-99.99,,,0.00,Acu-Link.com,2013-06-18 21:48:00,
2013-06-18 15:04:00,74.7,50.1,29.73,WSW,247,7.8,-999.0,42,-99.99,,,0.00,Acu-Link.com,2013-06-18 22:04:00,
2013-06-18 15:19:00,73.9,48.7,29.73,West,270,4.7,-999.0,41,-99.99,,,0.00,Acu-Link.com,2013-06-18 22:19:00,
2013-06-18 15:34:00,74.3,49.7,29.73,NNE,22,2.2,-999.0,42,-99.99,,,0.00,Acu-Link.com,2013-06-18 22:34:00,
2013-06-18 15:49:00,73.9,49.3,29.73,ESE,112,6.3,-999.0,42,-99.99,,,0.00,Acu-Link.com,2013-06-18 22:49:00,
2013-06-18 16:05:00,73.6,49.1,29.72,SW,225,3.7,-999.0,42,-99.99,,,0.00,Acu-Link.com,2013-06-18 23:05:00,
2013-06-18 16:20:00,73.4,50.8,29.71,SSW,202,2.7,-999.0,45,-99.99,,,0.00,Acu-Link.com,2013-06-18 23:20:00,
2013-06-18 16:35:00,73.0,51.0,29.71,SSE,157,3.7,-999.0,46,-99.99,,,0.00,Acu-Link.com,2013-06-18 23:35:00,
2013-06-18 16:50:00,73.2,51.2,29.71,NNE,22,4.7,-999.0,46,-99.99,,,0.00,Acu-Link.com,2013-06-18 23:50:00,
2013-06-18 17:06:00,72.9,51.5,29.70,West,270,3.7,-999.0,47,-99.99,,,0.00,Acu-Link.com,2013-06-19 00:06:00,
2013-06-18 17:21:00,74.1,51.4,29.70,NE,45,2.7,-999.0,45,-99.99,,,0.00,Acu-Link.com,2013-06-19 00:21:00,
2013-06-18 17:36:00,73.2,51.7,29.70,NNW,337,3.2,-999.0,47,-99.99,,,0.00,Acu-Link.com,2013-06-19 00:36:00,
2013-06-18 17:52:00,72.3,52.1,29.69,West,270,3.7,-999.0,49,-99.99,,,0.00,Acu-Link.com,2013-06-19 00:52:00,
2013-06-18 18:07:00,72.9,51.5,29.69,WSW,247,3.2,-999.0,47,-99.99,,,0.00,Acu-Link.com,2013-06-19 01:07:00,
2013-06-18 18:22:00,73.0,51.0,29.69,West,270,1.1,-999.0,46,-99.99,,,0.00,Acu-Link.com,2013-06-19 01:22:00,
2013-06-18 18:37:00,72.0,50.7,29.69,SW,225,3.2,-999.0,47,-99.99,,,0.00,Acu-Link.com,2013-06-19 01:37:00,
2013-06-18 18:53:00,70.9,50.2,29.69,South,180,4.2,-999.0,48,-99.99,,,0.00,Acu-Link.com,2013-06-19 01:53:00,
2013-06-18 19:08:00,66.7,53.3,29.69,SSE,157,3.7,-999.0,62,-99.99,,,0.00,Acu-Link.com,2013-06-19 02:08:00,
2013-06-18 19:23:00,66.4,51.2,29.69,West,270,3.2,-999.0,58,-99.99,,,0.00,Acu-Link.com,2013-06-19 02:23:00,
2013-06-18 19:38:00,64.2,51.8,29.69,WNW,292,1.1,-999.0,64,-99.99,,,0.00,Acu-Link.com,2013-06-19 02:38:00,
2013-06-18 19:54:00,61.7,51.0,29.68,West,270,3.2,-999.0,68,-99.99,,,0.00,Acu-Link.com,2013-06-19 02:54:00,
2013-06-18 20:09:00,61.5,50.4,29.69,North,0,4.7,-999.0,67,-99.99,,,0.00,Acu-Link.com,2013-06-19 03:09:00,
2013-06-18 20:24:00,60.1,50.7,29.69,WNW,292,4.2,-999.0,71,-99.99,,,0.01,Acu-Link.com,2013-06-19 03:24:00,
2013-06-18 20:40:00,59.7,50.3,29.70,WNW,292,4.7,-999.0,71,-99.99,,,0.01,Acu-Link.com,2013-06-19 03:40:00,
2013-06-18 20:55:00,59.0,50.0,29.70,SE,135,5.3,-999.0,72,-99.99,,,0.01,Acu-Link.com,2013-06-19 03:55:00,
2013-06-18 21:10:00,58.1,49.5,29.70,ESE,112,4.2,-999.0,73,-99.99,,,0.01,Acu-Link.com,2013-06-19 04:10:00,
2013-06-18 21:26:00,57.6,49.4,29.70,NNW,337,2.7,-999.0,74,-99.99,,,0.01,Acu-Link.com,2013-06-19 04:26:00,
2013-06-18 21:41:00,57.2,49.3,29.70,WNW,292,5.3,-999.0,75,-99.99,,,0.01,Acu-Link.com,2013-06-19 04:41:00,
2013-06-18 21:57:00,56.8,49.3,29.71,NNE,22,3.7,-999.0,76,-99.99,,,0.01,Acu-Link.com,2013-06-19 04:57:00,
2013-06-18 22:12:00,56.3,48.8,29.72,WNW,292,3.2,-999.0,76,-99.99,,,0.01,Acu-Link.com,2013-06-19 05:12:00,
2013-06-18 22:27:00,55.9,48.8,29.73,East,90,0.0,-999.0,77,-99.99,,,0.01,Acu-Link.com,2013-06-19 05:27:00,
2013-06-18 22:42:00,55.8,48.3,29.73,WNW,292,1.1,-999.0,76,-99.99,,,0.01,Acu-Link.com,2013-06-19 05:42:00,
2013-06-18 22:58:00,56.3,47.8,29.73,NNW,337,1.7,-999.0,73,-99.99,,,0.01,Acu-Link.com,2013-06-19 05:58:00,
2013-06-18 23:13:00,55.2,47.4,29.73,SW,225,0.0,-999.0,75,-99.99,,,0.01,Acu-Link.com,2013-06-19 06:13:00,
2013-06-18 23:28:00,55.4,47.3,29.72,NW,315,3.2,-999.0,74,-99.99,,,0.01,Acu-Link.com,2013-06-19 06:28:00,
2013-06-18 23:44:00,55.9,46.3,29.72,SE,135,2.7,-999.0,70,-99.99,,,0.01,Acu-Link.com,2013-06-19 06:44:00,
2013-06-18 23:59:00,57.0,45.4,29.73,West,270,3.7,-999.0,65,-99.99,,,0.01,Acu-Link.com,2013-06-19 06:59:00,